Time;durP1;ratioP1;P1;durP2;ratioP2;P2;SDS_P1;SDS_P2;PMS_P1;PMS_P2;Temp;Humidity;BMP_temperature;BMP_pressure;BME280_temperature;BME280_humidity;BME280_pressure;Samples;Min_cycle;Max_cycle;Signal;HPM_P1;HPM_P2
2022/12/25 00:00:13;;;;;;;2.47;0.70;;;10.90;99.90;;;;;;5113879;28;20063;-73
2022/12/25 00:02:38;;;;;;;2.22;1.08;;;10.90;99.90;;;;;;5111962;28;20032;-73
2022/12/25 00:05:05;;;;;;;4.20;0.77;;;10.90;99.90;;;;;;5111636;28;20024;-73
2022/12/25 00:07:31;;;;;;;3.20;0.77;;;10.90;99.90;;;;;;5112329;28;20512;-73
2022/12/25 00:09:57;;;;;;;6.80;1.23;;;10.90;99.90;;;;;;5111799;28;20243;-73
2022/12/25 00:12:23;;;;;;;4.03;1.17;;;10.90;99.90;;;;;;5112166;28;20054;-73
2022/12/25 00:14:48;;;;;;;3.08;0.80;;;10.90;99.90;;;;;;5112975;28;20031;-73
2022/12/25 00:17:14;;;;;;;2.03;0.98;;;10.90;99.90;;;;;;5112325;28;20426;-73
2022/12/25 00:19:40;;;;;;;4.15;0.82;;;10.90;99.90;;;;;;5111451;28;20047;-73
2022/12/25 00:22:05;;;;;;;3.65;1.13;;;10.90;99.90;;;;;;5113430;28;20050;-73
2022/12/25 00:24:31;;;;;;;3.58;1.48;;;10.90;99.90;;;;;;5113069;28;20050;-73
2022/12/25 00:26:56;;;;;;;3.53;1.00;;;10.80;99.90;;;;;;5111469;28;20023;-73
2022/12/25 00:29:22;;;;;;;1.60;0.85;;;10.80;99.90;;;;;;5112076;28;20028;-72
2022/12/25 00:31:48;;;;;;;2.80;1.05;;;10.80;99.90;;;;;;5111462;28;20042;-73
2022/12/25 00:34:13;;;;;;;2.63;1.30;;;10.80;99.90;;;;;;5111924;28;20049;-73
2022/12/25 00:36:39;;;;;;;7.20;1.40;;;10.70;99.90;;;;;;5111425;28;20060;-75
2022/12/25 00:39:06;;;;;;;4.00;1.35;;;10.80;99.90;;;;;;5111477;28;20032;-73
2022/12/25 00:44:16;;;;;;;2.65;1.30;;;10.70;99.90;;;;;;5113263;28;20496;-72
2022/12/25 00:46:42;;;;;;;4.00;1.17;;;10.70;99.90;;;;;;5111327;28;20024;-73
2022/12/25 00:49:08;;;;;;;2.53;1.30;;;10.70;99.90;;;;;;5111888;28;20117;-72
2022/12/25 00:51:33;;;;;;;3.50;1.13;;;10.70;99.90;;;;;;5111922;28;20024;-73
2022/12/25 00:53:59;;;;;;;1.63;1.00;;;10.70;99.90;;;;;;5111367;28;20623;-73
2022/12/25 00:56:25;;;;;;;5.90;1.13;;;10.70;99.90;;;;;;5113089;28;20035;-73
2022/12/25 00:58:51;;;;;;;5.80;1.67;;;10.70;99.90;;;;;;5111237;28;20469;-73
2022/12/25 01:01:17;;;;;;;2.75;1.40;;;10.70;99.90;;;;;;5111736;28;20098;-73
2022/12/25 01:03:42;;;;;;;5.47;1.48;;;10.70;99.90;;;;;;5112704;28;20031;-73
2022/12/25 01:06:10;;;;;;;4.55;1.65;;;10.70;99.90;;;;;;5112864;28;20107;-73
2022/12/25 01:08:38;;;;;;;4.97;1.20;;;10.70;99.90;;;;;;5111654;28;20034;-73
2022/12/25 01:11:06;;;;;;;5.65;1.25;;;10.70;99.90;;;;;;5112111;28;20024;-73
2022/12/25 01:13:35;;;;;;;2.40;1.20;;;10.70;99.90;;;;;;5113164;28;20350;-73
2022/12/25 01:16:08;;;;;;;4.22;1.33;;;10.70;99.90;;;;;;5112686;28;20028;-73
2022/12/25 01:18:35;;;;;;;6.40;1.30;;;10.70;99.90;;;;;;5115348;28;20481;-73
2022/12/25 01:21:11;;;;;;;5.68;1.38;;;10.70;99.90;;;;;;5114962;28;20035;-73
2022/12/25 01:23:37;;;;;;;5.07;1.42;;;10.70;99.90;;;;;;5115465;28;20028;-73
2022/12/25 01:26:04;;;;;;;4.03;1.40;;;10.60;99.90;;;;;;5114557;28;20073;-73
2022/12/25 01:28:30;;;;;;;3.03;1.50;;;10.70;99.90;;;;;;5115489;28;20039;-73
2022/12/25 01:30:56;;;;;;;4.60;1.70;;;10.70;99.90;;;;;;5116092;28;20023;-73
2022/12/25 01:33:21;;;;;;;4.53;1.38;;;10.70;99.90;;;;;;5116192;28;20052;-73
2022/12/25 01:35:47;;;;;;;10.23;1.80;;;10.60;99.90;;;;;;5114742;28;20423;-73
2022/12/25 01:38:12;;;;;;;7.57;1.60;;;10.50;99.90;;;;;;5115072;28;20126;-73
2022/12/25 01:40:38;;;;;;;4.53;1.95;;;10.50;99.90;;;;;;5115013;28;20408;-73
2022/12/25 01:43:23;;;;;;;7.55;1.70;;;10.50;99.90;;;;;;5115813;27;20015;-73
2022/12/25 01:45:51;;;;;;;4.38;1.70;;;10.60;99.90;;;;;;5114606;28;20031;-73
2022/12/25 01:48:19;;;;;;;5.90;2.08;;;10.50;99.90;;;;;;5115012;28;20050;-72
2022/12/25 01:50:48;;;;;;;5.57;2.00;;;10.50;99.90;;;;;;5114413;28;20114;-73
2022/12/25 01:53:15;;;;;;;5.43;2.10;;;10.50;99.90;;;;;;5114828;28;20023;-73
2022/12/25 01:55:44;;;;;;;7.60;1.98;;;10.50;99.90;;;;;;5114748;28;20031;-73
2022/12/25 01:58:10;;;;;;;2.88;1.70;;;10.50;99.90;;;;;;5116060;28;20077;-73
2022/12/25 02:00:35;;;;;;;5.75;2.33;;;10.60;99.90;;;;;;5115959;28;20028;-73
2022/12/25 02:03:01;;;;;;;9.95;2.50;;;10.60;99.90;;;;;;5114213;28;20090;-73
2022/12/25 02:05:30;;;;;;;9.40;2.50;;;10.50;99.90;;;;;;5114623;28;20028;-73
2022/12/25 02:07:59;;;;;;;6.38;2.55;;;10.50;99.90;;;;;;5114092;28;20036;-73
2022/12/25 02:10:25;;;;;;;8.02;2.47;;;10.50;99.90;;;;;;5114567;28;20384;-73
2022/12/25 02:12:51;;;;;;;9.20;2.78;;;10.50;99.90;;;;;;5114089;28;20024;-73
2022/12/25 02:15:20;;;;;;;7.60;2.95;;;10.60;99.90;;;;;;5116045;27;20076;-73
2022/12/25 02:17:57;;;;;;;7.93;2.85;;;10.60;99.90;;;;;;5114836;28;20059;-74
2022/12/25 02:20:47;;;;;;;6.07;2.90;;;10.50;99.90;;;;;;5114263;28;20024;-73
2022/12/25 02:23:31;;;;;;;7.85;3.00;;;10.50;99.90;;;;;;5114391;28;20547;-73
2022/12/25 02:26:29;;;;;;;9.40;3.00;;;10.50;99.90;;;;;;5113799;28;20397;-73
2022/12/25 02:29:08;;;;;;;10.18;3.10;;;10.40;99.90;;;;;;5114342;28;20042;-73
2022/12/25 02:31:43;;;;;;;6.35;3.10;;;10.50;99.90;;;;;;5114101;28;20028;-73
2022/12/25 02:34:21;;;;;;;6.85;2.55;;;10.40;99.90;;;;;;5113621;28;20027;-73
2022/12/25 02:37:03;;;;;;;6.95;2.97;;;10.40;99.90;;;;;;5114873;28;20031;-74
2022/12/25 02:39:57;;;;;;;5.78;2.85;;;10.40;99.90;;;;;;5114118;28;20028;-72
2022/12/25 03:08:09;;;;;;;10.57;3.13;;;10.20;99.90;;;;;;5114223;28;20488;-73
2022/12/25 03:13:26;;;;;;;12.27;2.80;;;10.10;99.90;;;;;;5114645;28;19953;-73
2022/12/25 03:18:36;;;;;;;8.35;2.75;;;10.00;99.90;;;;;;5114079;28;20059;-73
2022/12/25 03:26:54;;;;;;;5.47;2.58;;;9.90;99.90;;;;;;5114502;28;20124;-72
2022/12/25 03:32:44;;;;;;;8.20;2.47;;;9.90;99.90;;;;;;5114412;28;20039;-73
2022/12/25 03:35:42;;;;;;;10.57;3.00;;;9.90;99.90;;;;;;5090871;28;20450;-72
2022/12/25 04:37:41;;;;;;;9.52;2.50;;;10.00;99.90;;;;;;5112918;28;20043;-72
2022/12/25 04:40:07;;;;;;;5.32;2.42;;;9.90;99.90;;;;;;5111422;28;20071;-73
2022/12/25 04:42:33;;;;;;;6.20;2.60;;;9.80;99.90;;;;;;5112054;28;20027;-73
2022/12/25 04:44:58;;;;;;;9.27;2.63;;;9.80;99.90;;;;;;5111155;28;20134;-73
2022/12/25 04:47:24;;;;;;;9.98;2.88;;;9.80;99.90;;;;;;5111895;28;20020;-74
2022/12/25 04:49:49;;;;;;;8.20;2.60;;;9.80;99.90;;;;;;5113180;28;20027;-73
2022/12/25 04:52:15;;;;;;;5.10;2.20;;;9.80;99.90;;;;;;5116482;28;20456;-74
2022/12/25 04:54:40;;;;;;;6.38;2.63;;;9.80;99.90;;;;;;5116066;28;20023;-73
2022/12/25 04:57:06;;;;;;;8.63;2.70;;;9.80;99.90;;;;;;5115505;28;20036;-73
2022/12/25 04:59:32;;;;;;;6.05;2.33;;;9.80;99.90;;;;;;5117145;28;20165;-73
2022/12/25 05:01:58;;;;;;;5.57;2.50;;;9.80;99.90;;;;;;5115451;28;20080;-74
2022/12/25 05:04:23;;;;;;;5.07;2.35;;;9.80;99.90;;;;;;5115917;28;20553;-73
2022/12/25 05:06:49;;;;;;;5.95;2.65;;;9.70;99.90;;;;;;5115855;28;20456;-73
2022/12/25 05:09:14;;;;;;;7.45;2.78;;;9.70;99.90;;;;;;5115368;28;20473;-73
2022/12/25 05:11:40;;;;;;;6.45;2.85;;;9.60;99.90;;;;;;5115644;28;20468;-73
2022/12/25 05:14:05;;;;;;;7.85;2.70;;;9.60;99.90;;;;;;5115105;28;20028;-73
2022/12/25 05:16:31;;;;;;;12.63;2.97;;;9.60;99.90;;;;;;5115855;28;20044;-73
2022/12/25 05:18:57;;;;;;;4.40;2.25;;;9.60;99.90;;;;;;5114737;28;20460;-74
2022/12/25 05:21:22;;;;;;;8.70;3.42;;;9.60;99.90;;;;;;5115471;28;20037;-73
2022/12/25 05:23:50;;;;;;;4.28;2.40;;;9.70;99.90;;;;;;5115537;28;20023;-73
2022/12/25 05:26:21;;;;;;;6.10;2.53;;;9.60;99.90;;;;;;5114568;28;20225;-73
2022/12/25 05:28:48;;;;;;;6.05;2.60;;;9.60;99.90;;;;;;5115536;28;20126;-73
2022/12/25 05:31:13;;;;;;;5.15;2.17;;;9.60;99.90;;;;;;5116060;28;20035;-73
2022/12/25 05:33:39;;;;;;;6.07;2.35;;;9.60;99.90;;;;;;5115749;28;20376;-73
2022/12/25 05:36:07;;;;;;;5.13;2.45;;;9.60;99.90;;;;;;5116056;28;20019;-73
2022/12/25 05:38:33;;;;;;;5.93;2.30;;;9.60;99.90;;;;;;5115028;28;20034;-73
2022/12/25 05:40:59;;;;;;;6.65;2.42;;;9.60;99.90;;;;;;5114866;28;20032;-73
2022/12/25 05:43:26;;;;;;;5.70;2.55;;;9.50;99.90;;;;;;5114817;28;20119;-73
2022/12/25 05:45:52;;;;;;;5.78;2.40;;;9.50;99.90;;;;;;5116458;28;20483;-73
2022/12/25 05:48:17;;;;;;;5.07;2.30;;;9.40;99.90;;;;;;5114568;28;20028;-73
2022/12/25 05:50:43;;;;;;;5.90;2.50;;;9.50;99.90;;;;;;5115051;28;20035;-73
2022/12/25 05:53:11;;;;;;;4.90;1.98;;;9.50;99.90;;;;;;5114486;28;20475;-73
2022/12/25 05:55:42;;;;;;;6.53;2.83;;;9.50;99.90;;;;;;5115944;28;20030;-73
2022/12/25 05:58:08;;;;;;;3.75;2.25;;;9.50;99.90;;;;;;5115556;28;20027;-73
2022/12/25 06:00:34;;;;;;;5.03;2.00;;;9.50;99.90;;;;;;5114329;28;20027;-73
2022/12/25 06:02:59;;;;;;;4.30;2.25;;;9.50;99.90;;;;;;5112973;28;20180;-73
2022/12/25 06:05:25;;;;;;;5.18;2.63;;;9.50;99.90;;;;;;5115989;28;20489;-73
2022/12/25 06:07:51;;;;;;;7.07;2.05;;;9.50;99.90;;;;;;5115608;28;20431;-73
2022/12/25 06:10:17;;;;;;;3.85;2.03;;;9.50;99.90;;;;;;5114166;28;20110;-73
2022/12/25 06:12:43;;;;;;;4.53;1.98;;;9.50;99.90;;;;;;5114624;28;20408;-73
2022/12/25 06:15:08;;;;;;;6.53;2.10;;;9.60;99.90;;;;;;5114018;28;20019;-73
2022/12/25 06:17:34;;;;;;;3.65;1.80;;;9.60;99.90;;;;;;5113896;28;20072;-73
2022/12/25 06:20:00;;;;;;;5.07;2.10;;;9.60;99.90;;;;;;5115168;28;20019;-73
2022/12/25 06:22:30;;;;;;;3.58;1.80;;;9.60;99.90;;;;;;5115648;28;20028;-73
2022/12/25 06:24:56;;;;;;;5.15;2.10;;;9.60;99.90;;;;;;5114327;28;20114;-73
2022/12/25 06:27:21;;;;;;;5.40;2.22;;;9.60;99.90;;;;;;5115113;28;20115;-73
2022/12/25 06:29:47;;;;;;;7.15;2.40;;;9.60;99.90;;;;;;5114279;28;20027;-73
2022/12/25 06:32:13;;;;;;;4.75;2.13;;;9.70;99.90;;;;;;5113621;28;20032;-73
2022/12/25 06:34:38;;;;;;;4.70;2.08;;;9.70;99.90;;;;;;5114397;28;20051;-73
2022/12/25 06:37:04;;;;;;;3.55;1.80;;;9.70;99.90;;;;;;5113512;28;20023;-73
2022/12/25 06:39:29;;;;;;;3.90;1.90;;;9.70;99.90;;;;;;5115239;28;20070;-73
2022/12/25 06:41:55;;;;;;;3.58;1.63;;;9.70;99.90;;;;;;5114013;28;20478;-73
2022/12/25 06:44:21;;;;;;;5.65;2.15;;;9.70;99.90;;;;;;5114454;28;20582;-73
2022/12/25 06:46:46;;;;;;;2.70;1.77;;;9.70;99.90;;;;;;5115099;28;20153;-73
2022/12/25 06:49:12;;;;;;;4.05;1.92;;;9.70;99.90;;;;;;5113349;28;20051;-73
2022/12/25 06:51:37;;;;;;;5.50;2.13;;;9.70;99.90;;;;;;5114996;28;20028;-73
2022/12/25 06:54:03;;;;;;;7.38;2.38;;;9.70;99.90;;;;;;5113043;28;20023;-74
2022/12/25 06:56:29;;;;;;;4.97;2.33;;;9.70;99.90;;;;;;5114956;28;20085;-73
2022/12/25 06:58:58;;;;;;;6.30;2.30;;;9.70;99.90;;;;;;5113227;28;20031;-73
2022/12/25 07:01:43;;;;;;;6.18;2.90;;;9.70;99.90;;;;;;5113107;28;20038;-73
2022/12/25 07:04:38;;;;;;;4.25;2.22;;;9.70;99.90;;;;;;5114478;28;20027;-73
2022/12/25 07:07:06;;;;;;;5.07;2.00;;;9.70;99.90;;;;;;5113053;28;20024;-73
2022/12/25 07:09:31;;;;;;;5.22;2.13;;;9.70;99.90;;;;;;5113481;28;20039;-72
2022/12/25 07:12:15;;;;;;;6.38;2.40;;;9.70;99.90;;;;;;5114895;28;20032;-73
2022/12/25 07:14:41;;;;;;;5.25;2.33;;;9.70;99.90;;;;;;5114680;28;20121;-73
2022/12/25 07:17:06;;;;;;;5.15;2.15;;;9.70;99.90;;;;;;5112808;28;20034;-73
2022/12/25 07:19:32;;;;;;;4.38;2.08;;;9.70;99.90;;;;;;5112665;28;20413;-73
2022/12/25 07:21:57;;;;;;;5.90;2.67;;;9.70;99.90;;;;;;5113193;28;20019;-73
2022/12/25 07:24:23;;;;;;;3.83;2.13;;;9.70;99.90;;;;;;5112484;28;20031;-73
2022/12/25 07:26:50;;;;;;;4.32;2.25;;;9.70;99.90;;;;;;5114576;28;20036;-73
2022/12/25 07:29:16;;;;;;;7.45;3.22;;;9.70;99.90;;;;;;5113816;28;20469;-73
2022/12/25 07:31:42;;;;;;;6.07;2.67;;;9.70;99.90;;;;;;5113297;28;20037;-73
2022/12/25 07:34:08;;;;;;;6.28;2.75;;;9.70;99.90;;;;;;5112571;28;20118;-74
2022/12/25 07:36:33;;;;;;;3.88;2.35;;;9.70;99.90;;;;;;5112867;28;20442;-73
2022/12/25 07:38:59;;;;;;;3.47;2.30;;;9.80;99.90;;;;;;5114105;28;20027;-73
2022/12/25 07:41:25;;;;;;;6.97;2.60;;;9.80;99.90;;;;;;5112308;28;20027;-73
2022/12/25 07:43:51;;;;;;;4.00;2.30;;;9.80;99.90;;;;;;5112827;28;20121;-73
2022/12/25 07:46:18;;;;;;;3.92;2.42;;;9.80;99.90;;;;;;5112247;28;20024;-73
2022/12/25 07:48:43;;;;;;;7.65;3.47;;;9.70;99.90;;;;;;5112626;28;20061;-73
2022/12/25 07:51:11;;;;;;;6.85;3.78;;;9.70;99.90;;;;;;5111864;28;20024;-73
2022/12/25 07:53:39;;;;;;;5.53;3.33;;;9.80;99.90;;;;;;5112654;28;20031;-73
2022/12/25 07:56:16;;;;;;;7.55;3.22;;;9.70;99.90;;;;;;5112057;28;20031;-78
2022/12/25 07:58:42;;;;;;;4.68;3.00;;;9.70;99.90;;;;;;5112616;28;20460;-73
2022/12/25 08:01:16;;;;;;;5.47;3.45;;;9.80;99.90;;;;;;5113280;28;20028;-74
2022/12/25 08:03:42;;;;;;;7.55;3.30;;;9.80;99.90;;;;;;5112503;28;20020;-73
2022/12/25 08:06:09;;;;;;;6.45;3.45;;;9.80;99.90;;;;;;5111891;28;20027;-73
2022/12/25 08:08:37;;;;;;;4.53;2.85;;;9.80;99.90;;;;;;5112402;28;20028;-73
2022/12/25 08:11:02;;;;;;;5.47;2.78;;;9.80;99.90;;;;;;5112007;28;20034;-73
2022/12/25 08:13:32;;;;;;;8.50;3.70;;;9.90;99.90;;;;;;5113301;28;20027;-73
2022/12/25 08:15:59;;;;;;;7.25;4.40;;;9.90;99.90;;;;;;5112252;28;20480;-73
2022/12/25 08:18:25;;;;;;;11.80;3.95;;;9.90;99.90;;;;;;5112975;28;20055;-73
2022/12/25 08:20:51;;;;;;;4.65;3.00;;;9.90;99.90;;;;;;5111816;28;20076;-73
2022/12/25 08:23:17;;;;;;;6.60;3.08;;;9.80;99.90;;;;;;5112887;28;20023;-73
2022/12/25 08:25:43;;;;;;;3.97;2.55;;;9.80;99.90;;;;;;5111161;28;20032;-73
2022/12/25 08:28:08;;;;;;;3.58;2.60;;;9.80;99.90;;;;;;5112539;28;20050;-74
2022/12/25 08:30:36;;;;;;;7.15;2.50;;;9.80;99.90;;;;;;5112082;28;20030;-73
2022/12/25 08:33:02;;;;;;;4.18;2.17;;;9.90;99.90;;;;;;5113255;28;20110;-73
2022/12/25 08:35:27;;;;;;;4.43;2.38;;;9.90;99.90;;;;;;5111469;28;20089;-73
2022/12/25 08:37:53;;;;;;;6.25;2.47;;;9.90;99.90;;;;;;5111808;28;20034;-73
2022/12/25 08:40:18;;;;;;;4.75;2.20;;;9.90;99.90;;;;;;5111429;28;20031;-73
2022/12/25 08:42:44;;;;;;;4.72;2.60;;;10.00;99.90;;;;;;5112033;28;20031;-73
2022/12/25 08:45:10;;;;;;;4.70;2.20;;;10.00;99.90;;;;;;5112625;28;20024;-73
2022/12/25 08:47:36;;;;;;;5.93;2.28;;;10.00;99.90;;;;;;5111847;28;20349;-73
2022/12/25 08:50:02;;;;;;;7.68;3.17;;;10.00;99.90;;;;;;5111779;28;20110;-73
2022/12/25 08:52:28;;;;;;;7.10;3.42;;;10.10;99.90;;;;;;5112605;28;20240;-73
2022/12/25 08:54:53;;;;;;;6.25;3.38;;;10.00;99.90;;;;;;5111680;28;20051;-73
2022/12/25 08:57:19;;;;;;;6.38;3.20;;;10.00;99.90;;;;;;5111185;28;20031;-73
2022/12/25 08:59:44;;;;;;;4.15;2.67;;;10.00;99.90;;;;;;5112695;28;20472;-73
2022/12/25 09:02:11;;;;;;;5.03;2.70;;;10.00;99.90;;;;;;5111256;28;20023;-74
2022/12/25 09:04:37;;;;;;;5.13;2.30;;;10.00;99.90;;;;;;5111653;28;20034;-73
2022/12/25 09:07:02;;;;;;;5.35;2.40;;;10.10;99.90;;;;;;5111695;28;20442;-73
2022/12/25 09:09:28;;;;;;;5.45;2.45;;;10.10;99.90;;;;;;5112415;28;20028;-73
2022/12/25 09:11:54;;;;;;;6.20;2.45;;;10.10;99.90;;;;;;5111765;28;20023;-73
2022/12/25 09:14:20;;;;;;;4.40;2.67;;;10.10;99.90;;;;;;5111116;28;20165;-73
2022/12/25 09:16:48;;;;;;;5.90;2.38;;;10.20;99.90;;;;;;5111557;28;20055;-73
2022/12/25 09:19:13;;;;;;;5.72;2.20;;;10.30;99.90;;;;;;5110647;28;20056;-74
2022/12/25 09:21:39;;;;;;;2.78;1.73;;;10.30;99.90;;;;;;5111607;28;20038;-73
2022/12/25 09:24:05;;;;;;;3.60;2.35;;;10.40;99.90;;;;;;5112655;28;20024;-73
2022/12/25 09:26:30;;;;;;;8.60;4.65;;;10.40;99.90;;;;;;5110998;28;20035;-73
2022/12/25 09:28:56;;;;;;;8.13;4.22;;;10.50;99.90;;;;;;5111489;28;20028;-73
2022/12/25 09:31:22;;;;;;;3.70;1.98;;;10.50;99.90;;;;;;5111005;28;20031;-73
2022/12/25 09:33:48;;;;;;;8.85;4.90;;;10.60;99.90;;;;;;5112736;28;20031;-72
2022/12/25 09:36:14;;;;;;;4.30;2.78;;;10.60;99.90;;;;;;5111401;28;20124;-73
2022/12/25 09:38:42;;;;;;;4.45;1.73;;;10.70;99.90;;;;;;5115194;28;20445;-73
2022/12/25 09:41:38;;;;;;;3.33;1.40;;;10.70;99.90;;;;;;5115213;28;20118;-73
2022/12/25 09:44:20;;;;;;;3.50;1.77;;;10.80;99.90;;;;;;5115247;28;20387;-73
2022/12/25 09:46:56;;;;;;;4.03;1.80;;;10.80;99.90;;;;;;5116783;28;20020;-73
2022/12/25 09:49:29;;;;;;;5.15;2.70;;;10.80;99.90;;;;;;5114472;28;20024;-73
2022/12/25 09:52:03;;;;;;;5.10;2.70;;;10.80;99.90;;;;;;5115204;28;20136;-73
2022/12/25 09:55:02;;;;;;;4.45;2.00;;;10.80;99.90;;;;;;5114387;28;20034;-73
2022/12/25 09:57:28;;;;;;;7.30;2.17;;;10.70;99.90;;;;;;5114358;28;20042;-73
2022/12/25 09:59:54;;;;;;;5.30;2.67;;;10.80;99.90;;;;;;5114831;28;20119;-73
2022/12/25 10:02:32;;;;;;;8.60;3.53;;;10.80;99.90;;;;;;5114272;28;20491;-73
2022/12/25 10:05:26;;;;;;;8.02;3.17;;;10.80;99.90;;;;;;5114755;28;20047;-73
2022/12/25 10:08:17;;;;;;;5.30;2.58;;;10.80;99.90;;;;;;5114875;28;20024;-73
2022/12/25 10:10:53;;;;;;;4.93;2.00;;;10.80;99.90;;;;;;5104711;28;20165;-73
2022/12/25 10:13:33;;;;;;;3.75;2.42;;;10.80;99.90;;;;;;5115213;28;20248;-73
2022/12/25 10:16:17;;;;;;;4.93;1.95;;;10.80;99.90;;;;;;5114675;28;20028;-73
2022/12/25 10:18:54;;;;;;;3.22;1.90;;;10.90;99.90;;;;;;5114223;28;20184;-73
2022/12/25 10:21:22;;;;;;;3.85;1.90;;;10.90;99.90;;;;;;5114008;28;20030;-74
2022/12/25 10:24:14;;;;;;;3.95;2.55;;;11.00;99.90;;;;;;5114319;28;20039;-73
2022/12/25 10:26:40;;;;;;;4.05;2.17;;;11.10;99.90;;;;;;5067251;28;20481;-73
2022/12/25 10:29:13;;;;;;;2.35;1.80;;;11.20;99.90;;;;;;5114175;28;20031;-72
2022/12/25 10:31:40;;;;;;;2.33;1.40;;;11.30;99.90;;;;;;5114505;28;20104;-73
2022/12/25 10:34:10;;;;;;;4.28;1.80;;;11.40;99.90;;;;;;5115332;28;20019;-73
2022/12/25 10:36:36;;;;;;;3.20;1.63;;;11.40;99.90;;;;;;5114982;28;20028;-73
2022/12/25 10:39:02;;;;;;;3.25;1.70;;;11.50;99.90;;;;;;5114088;28;20465;-75
2022/12/25 10:42:08;;;;;;;2.80;1.70;;;11.50;99.90;;;;;;5113538;28;20108;-73
2022/12/25 10:44:34;;;;;;;3.40;1.50;;;11.60;99.90;;;;;;5114860;28;20024;-73
2022/12/25 10:47:01;;;;;;;3.30;1.30;;;11.60;99.90;;;;;;5115092;28;20031;-73
2022/12/25 10:49:36;;;;;;;2.25;1.50;;;11.70;99.90;;;;;;5112696;28;20023;-73
2022/12/25 10:52:02;;;;;;;2.90;1.55;;;11.80;99.90;;;;;;5113812;28;20023;-73
2022/12/25 10:54:30;;;;;;;3.17;1.55;;;11.80;99.90;;;;;;5113063;28;20031;-73
2022/12/25 10:57:09;;;;;;;4.15;1.48;;;11.90;99.90;;;;;;5115031;28;20027;-73
2022/12/25 10:59:41;;;;;;;2.42;1.25;;;11.90;99.90;;;;;;5113081;28;20035;-73
2022/12/25 11:02:25;;;;;;;2.00;1.30;;;11.90;99.90;;;;;;5114813;28;20050;-73
2022/12/25 11:05:05;;;;;;;3.17;1.48;;;12.00;99.90;;;;;;5113254;28;20118;-73
2022/12/25 11:07:33;;;;;;;2.67;1.35;;;12.00;99.90;;;;;;5113955;28;20023;-73
2022/12/25 11:10:02;;;;;;;5.13;2.47;;;12.10;99.90;;;;;;5113478;28;20020;-73
2022/12/25 11:12:36;;;;;;;4.65;1.92;;;12.10;99.90;;;;;;5114438;28;20031;-73
2022/12/25 11:15:43;;;;;;;1.98;1.52;;;12.20;99.90;;;;;;5113546;28;20042;-73
2022/12/25 11:18:22;;;;;;;3.38;1.40;;;12.20;99.90;;;;;;5014984;28;20157;-73
2022/12/25 11:21:18;;;;;;;2.50;1.20;;;12.20;99.90;;;;;;5031658;28;20026;-73
2022/12/25 11:23:47;;;;;;;4.07;1.30;;;12.20;99.90;;;;;;5014975;28;20045;-73
2022/12/25 11:26:15;;;;;;;1.88;1.33;;;12.30;99.90;;;;;;5031391;28;20041;-73
2022/12/25 11:28:42;;;;;;;2.58;1.25;;;12.30;99.90;;;;;;5030928;28;20050;-73
2022/12/25 11:31:14;;;;;;;4.95;1.60;;;12.40;99.90;;;;;;5031478;28;20037;-73
2022/12/25 11:34:12;;;;;;;2.28;1.20;;;12.30;99.90;;;;;;5030979;28;20040;-73
2022/12/25 11:36:44;;;;;;;2.92;1.55;;;12.30;99.90;;;;;;5022582;28;20534;-73
2022/12/25 11:39:30;;;;;;;2.42;1.33;;;12.30;99.90;;;;;;5031459;28;20043;-73
2022/12/25 11:42:21;;;;;;;2.22;1.60;;;12.30;99.90;;;;;;5031083;28;20029;-73
2022/12/25 11:45:03;;;;;;;2.25;1.48;;;12.30;99.90;;;;;;5031375;28;20125;-74
2022/12/25 11:47:37;;;;;;;;;;;12.30;99.90;;;;;;5031022;28;20036;-73
2022/12/25 11:50:22;;;;;;;3.05;1.52;;;12.30;99.90;;;;;;5110777;28;20015;-73
2022/12/25 11:52:49;;;;;;;2.63;1.35;;;12.40;99.90;;;;;;5112905;28;20063;-73
2022/12/25 11:55:20;;;;;;;3.60;1.77;;;12.40;99.90;;;;;;5112478;28;20028;-73
2022/12/25 11:57:55;;;;;;;3.33;1.60;;;12.50;99.90;;;;;;5112443;28;20040;-73
2022/12/25 12:00:21;;;;;;;2.80;1.50;;;12.60;99.90;;;;;;5111103;28;20042;-73
2022/12/25 12:03:11;;;;;;;4.22;1.70;;;12.60;99.90;;;;;;5113782;28;20028;-73
2022/12/25 12:05:52;;;;;;;3.95;1.88;;;12.60;99.90;;;;;;5113210;28;20037;-73
2022/12/25 12:08:18;;;;;;;4.10;1.90;;;12.70;99.90;;;;;;5112442;28;20027;-73
2022/12/25 12:11:16;;;;;;;4.65;2.20;;;12.80;99.90;;;;;;5111772;28;20038;-73
2022/12/25 12:13:57;;;;;;;2.55;1.55;;;12.90;99.90;;;;;;5111878;28;20381;-73
2022/12/25 12:16:23;;;;;;;2.10;1.33;;;13.10;99.90;;;;;;5111891;28;20028;-73
2022/12/25 12:18:49;;;;;;;3.42;1.50;;;13.20;99.90;;;;;;5113181;28;20062;-73
2022/12/25 12:21:29;;;;;;;4.00;1.58;;;13.40;99.90;;;;;;5112100;28;20044;-73
2022/12/25 12:24:11;;;;;;;2.78;1.63;;;13.70;99.90;;;;;;5112107;28;20031;-73
2022/12/25 12:26:41;;;;;;;4.55;1.40;;;13.90;99.90;;;;;;5111623;28;20032;-73
2022/12/25 12:29:25;;;;;;;4.55;1.63;;;14.00;99.90;;;;;;5112288;28;20096;-73
2022/12/25 12:31:53;;;;;;;2.28;1.25;;;13.90;99.90;;;;;;5112265;28;20024;-73
2022/12/25 12:34:23;;;;;;;2.70;1.50;;;13.80;99.90;;;;;;5112045;28;20088;-73
2022/12/25 12:36:59;;;;;;;3.05;1.60;;;13.70;99.90;;;;;;5113365;28;20491;-73
2022/12/25 12:39:30;;;;;;;2.22;1.30;;;13.60;99.90;;;;;;5111510;28;20076;-73
2022/12/25 12:41:56;;;;;;;3.50;1.50;;;13.70;99.90;;;;;;5113067;28;20047;-73
2022/12/25 12:44:29;;;;;;;3.25;1.58;;;13.70;99.90;;;;;;5113087;28;20028;-77
2022/12/25 12:46:56;;;;;;;5.85;1.80;;;13.60;99.90;;;;;;5111974;28;20491;-73
2022/12/25 12:49:31;;;;;;;3.42;1.80;;;13.70;99.90;;;;;;5111826;28;20027;-73
2022/12/25 12:52:24;;;;;;;2.92;1.70;;;13.80;99.90;;;;;;5112002;28;20578;-73
2022/12/25 12:55:03;;;;;;;5.78;2.13;;;13.90;99.90;;;;;;5112782;28;20431;-73
2022/12/25 12:57:38;;;;;;;5.70;2.45;;;14.00;99.90;;;;;;5111227;28;20027;-73
2022/12/25 13:00:20;;;;;;;5.05;1.48;;;14.10;99.90;;;;;;5111966;28;20031;-73
2022/12/25 13:02:54;;;;;;;2.50;1.33;;;14.10;99.90;;;;;;5111320;28;20023;-73
2022/12/25 13:05:40;;;;;;;3.35;2.00;;;14.20;99.90;;;;;;5111748;28;20039;-73
2022/12/25 13:08:26;;;;;;;3.70;1.77;;;14.30;99.90;;;;;;5111923;28;20081;-73
2022/12/25 13:11:16;;;;;;;3.83;1.73;;;14.40;99.90;;;;;;5111971;28;20028;-73
2022/12/25 13:13:44;;;;;;;3.47;1.75;;;14.40;99.90;;;;;;5115329;28;20031;-74
2022/12/25 13:16:21;;;;;;;2.60;1.67;;;14.40;99.90;;;;;;5115433;28;20019;-73
2022/12/25 13:18:49;;;;;;;2.17;1.52;;;14.20;99.90;;;;;;5114747;28;20062;-73
2022/12/25 13:21:22;;;;;;;2.65;1.50;;;14.10;99.90;;;;;;5117157;28;20149;-73
2022/12/25 13:23:47;;;;;;;2.05;1.30;;;13.90;99.90;;;;;;5115049;28;20030;-73
2022/12/25 13:26:15;;;;;;;5.28;1.77;;;13.90;99.90;;;;;;5115397;28;20039;-73
2022/12/25 13:28:41;;;;;;;3.05;1.60;;;13.90;99.90;;;;;;5115936;28;20062;-73
2022/12/25 13:31:20;;;;;;;3.65;1.63;;;13.80;99.90;;;;;;5116673;28;20453;-73
2022/12/25 13:33:54;;;;;;;2.13;1.50;;;13.80;99.90;;;;;;5114918;28;20028;-73
2022/12/25 13:36:19;;;;;;;4.55;1.70;;;13.70;99.90;;;;;;5115289;28;20023;-73
2022/12/25 13:38:47;;;;;;;3.00;1.30;;;13.70;99.90;;;;;;5114628;28;20038;-73
2022/12/25 13:44:14;;;;;;;2.35;1.40;;;13.70;99.90;;;;;;5116380;28;20066;-73
2022/12/25 13:46:39;;;;;;;3.10;1.50;;;13.70;99.90;;;;;;5114703;28;20019;-73
2022/12/25 13:49:13;;;;;;;2.35;1.30;;;13.70;99.90;;;;;;5116322;28;20107;-73
2022/12/25 13:51:39;;;;;;;2.47;1.70;;;13.60;99.90;;;;;;5115804;28;20047;-73
2022/12/25 13:54:05;;;;;;;3.05;1.42;;;13.60;99.90;;;;;;5114899;28;20062;-73
2022/12/25 13:56:33;;;;;;;3.63;1.50;;;13.60;99.90;;;;;;5114100;28;20034;-74
2022/12/25 13:58:58;;;;;;;2.65;1.27;;;13.70;99.90;;;;;;5116057;28;20067;-73
2022/12/25 14:01:24;;;;;;;2.45;1.40;;;13.80;99.90;;;;;;5114844;28;20055;-73
2022/12/25 14:03:50;;;;;;;3.83;1.60;;;13.90;99.90;;;;;;5114275;28;20082;-73
2022/12/25 14:06:26;;;;;;;4.57;1.88;;;14.00;99.90;;;;;;5114422;28;20032;-73
2022/12/25 14:08:54;;;;;;;3.33;1.65;;;14.00;99.90;;;;;;5115850;28;20114;-73
2022/12/25 14:11:22;;;;;;;4.03;1.80;;;14.10;99.90;;;;;;5114636;28;20030;-73
2022/12/25 14:13:52;;;;;;;3.85;1.60;;;14.10;99.90;;;;;;5114065;28;20366;-73
2022/12/25 14:16:19;;;;;;;2.17;1.40;;;14.10;99.90;;;;;;5115797;28;20024;-73
2022/12/25 14:18:59;;;;;;;3.42;1.40;;;14.10;99.90;;;;;;5114667;28;20040;-73
2022/12/25 14:21:31;;;;;;;2.13;1.30;;;14.10;99.90;;;;;;5114534;28;20024;-73
2022/12/25 14:23:57;;;;;;;4.55;1.30;;;14.10;99.90;;;;;;5114567;28;20435;-73
2022/12/25 14:26:24;;;;;;;3.35;1.50;;;14.00;99.90;;;;;;5114247;28;20028;-73
2022/12/25 14:29:07;;;;;;;2.47;1.42;;;14.00;99.90;;;;;;5115346;28;20035;-73
2022/12/25 14:31:33;;;;;;;2.08;1.33;;;13.90;99.90;;;;;;5113782;28;20119;-73
2022/12/25 14:34:04;;;;;;;2.10;1.30;;;13.90;99.90;;;;;;5114190;28;20024;-73
2022/12/25 14:36:32;;;;;;;2.90;1.15;;;13.80;99.90;;;;;;5114935;28;20028;-73
2022/12/25 14:39:03;;;;;;;3.50;1.40;;;13.70;99.90;;;;;;5114180;28;20036;-73
2022/12/25 14:41:38;;;;;;;1.92;1.13;;;13.70;99.90;;;;;;5113427;28;20028;-73
2022/12/25 14:44:31;;;;;;;2.40;1.23;;;13.60;99.90;;;;;;5114192;28;20189;-73
2022/12/25 14:47:09;;;;;;;3.20;1.70;;;13.40;99.90;;;;;;5115175;28;20480;-73
2022/12/25 14:49:36;;;;;;;1.77;1.20;;;13.30;99.90;;;;;;5114390;28;20069;-73
2022/12/25 14:52:19;;;;;;;3.72;1.27;;;13.20;99.90;;;;;;5113965;28;20020;-73